createdAt,value
2022-12-19T00:00:27.955Z,58.50
2022-12-19T00:01:33.938Z,58.50
2022-12-19T00:02:39.271Z,58.63
2022-12-19T00:03:47.125Z,58.64
2022-12-19T00:04:49.339Z,58.58
2022-12-19T00:05:54.408Z,58.44
2022-12-19T00:07:05.525Z,58.57
2022-12-19T00:08:17.615Z,58.46
2022-12-19T00:09:20.231Z,58.50
2022-12-19T00:10:22.519Z,58.45
2022-12-19T00:11:25.638Z,58.36
2022-12-19T00:12:31.157Z,58.42
2022-12-19T00:13:40.752Z,58.51
2022-12-19T00:14:47.556Z,58.53
2022-12-19T00:15:49.835Z,58.69
2022-12-19T00:16:53.506Z,58.70
2022-12-19T00:17:56.784Z,58.53
2022-12-19T00:19:00.780Z,58.60
2022-12-19T00:20:04.097Z,58.57
2022-12-19T00:21:07.102Z,58.59
2022-12-19T00:22:11.307Z,58.63
2022-12-19T00:23:13.682Z,58.68
2022-12-19T00:24:21.236Z,58.73
2022-12-19T00:25:24.007Z,58.71
2022-12-19T00:26:36.792Z,58.74
2022-12-19T00:27:39.817Z,58.79
2022-12-19T00:28:44.388Z,58.80
2022-12-19T00:29:46.659Z,58.82
2022-12-19T00:30:48.985Z,58.80
2022-12-19T00:31:51.316Z,58.96
2022-12-19T00:32:56.130Z,58.81
2022-12-19T00:33:58.365Z,58.72
2022-12-19T00:35:01.168Z,58.72
2022-12-19T00:36:07.261Z,58.58
2022-12-19T00:37:09.471Z,58.40
2022-12-19T00:38:11.870Z,58.59
2022-12-19T00:39:14.327Z,58.53
2022-12-19T00:40:16.762Z,58.37
2022-12-19T00:41:25.266Z,58.33
2022-12-19T00:42:36.687Z,58.29
2022-12-19T00:43:39.462Z,58.11
2022-12-19T00:44:41.768Z,58.24
2022-12-19T00:45:44.064Z,58.25
2022-12-19T00:46:52.366Z,58.28
2022-12-19T00:47:57.422Z,58.22
2022-12-19T00:49:00.569Z,58.31
2022-12-19T00:50:05.946Z,58.18
2022-12-19T00:51:20.258Z,58.32
2022-12-19T00:52:22.515Z,58.26
2022-12-19T00:53:25.765Z,58.03
2022-12-19T00:54:28.004Z,58.02
2022-12-19T00:55:30.753Z,58.04
2022-12-19T00:56:37.710Z,58.29
2022-12-19T00:57:42.882Z,58.23
2022-12-19T00:58:47.499Z,58.18
2022-12-19T00:59:50.789Z,57.94
2022-12-19T01:00:53.823Z,58.04
2022-12-19T01:01:56.286Z,58.05
2022-12-19T01:02:59.902Z,58.18
2022-12-19T01:05:28.237Z,58.09
2022-12-19T01:06:30.807Z,58.00
2022-12-19T01:07:34.091Z,58.04
2022-12-19T01:08:36.989Z,57.92
2022-12-19T01:09:39.995Z,57.86
2022-12-19T01:10:49.649Z,57.94
2022-12-19T01:12:13.905Z,57.99
2022-12-19T01:13:19.783Z,57.73
2022-12-19T01:14:23.166Z,57.60
2022-12-19T01:15:26.037Z,57.78
2022-12-19T01:16:28.323Z,57.58
2022-12-19T01:17:30.595Z,57.40
2022-12-19T01:18:33.021Z,57.43
2022-12-19T01:19:40.366Z,57.48
2022-12-19T01:20:49.246Z,57.29
2022-12-19T01:21:51.470Z,57.58
2022-12-19T01:22:54.342Z,57.47
2022-12-19T01:23:56.756Z,57.46
2022-12-19T01:24:59.010Z,57.39
2022-12-19T01:26:01.480Z,57.42
2022-12-19T01:27:03.797Z,57.35
2022-12-19T01:28:07.603Z,57.37
2022-12-19T01:29:09.926Z,57.50
2022-12-19T01:30:13.047Z,57.25
2022-12-19T01:31:16.036Z,57.28
2022-12-19T01:32:21.920Z,57.32
2022-12-19T01:33:24.272Z,57.36
2022-12-19T01:34:26.785Z,57.32
2022-12-19T01:35:29.183Z,57.35
2022-12-19T01:36:31.375Z,57.38
2022-12-19T01:37:33.660Z,57.30
2022-12-19T01:38:36.588Z,57.16
2022-12-19T01:39:38.774Z,57.09
2022-12-19T01:40:58.076Z,57.11
2022-12-19T01:42:01.214Z,57.15
2022-12-19T01:43:04.782Z,57.22
2022-12-19T01:44:11.996Z,56.98
2022-12-19T01:45:17.303Z,56.95
2022-12-19T01:46:43.089Z,56.72
2022-12-19T01:48:23.659Z,56.84
2022-12-19T01:49:31.188Z,56.73
2022-12-19T01:50:47.069Z,56.86
2022-12-19T01:52:10.363Z,56.88
2022-12-19T01:53:29.577Z,56.87
2022-12-19T01:54:38.717Z,56.76
2022-12-19T01:55:42.667Z,56.82
2022-12-19T01:56:49.740Z,56.71
2022-12-19T01:57:57.656Z,56.76
2022-12-19T01:59:07.079Z,56.76
2022-12-19T02:00:12.768Z,56.67
2022-12-19T02:01:18.092Z,56.51
2022-12-19T02:02:33.702Z,56.46
2022-12-19T02:03:37.306Z,56.57
2022-12-19T02:04:41.203Z,56.42
2022-12-19T02:05:46.813Z,56.62
2022-12-19T02:06:51.123Z,56.63
2022-12-19T02:07:53.982Z,56.36
2022-12-19T02:08:56.573Z,56.62
2022-12-19T02:09:59.320Z,56.77
2022-12-19T02:11:09.736Z,56.72
2022-12-19T02:12:14.856Z,56.99
2022-12-19T02:13:17.903Z,56.92
2022-12-19T02:14:20.638Z,56.71
2022-12-19T02:15:23.970Z,56.95
2022-12-19T02:16:53.900Z,56.91
2022-12-19T02:18:02.107Z,56.60
2022-12-19T02:19:26.707Z,56.55
2022-12-19T02:20:44.786Z,56.63
2022-12-19T02:21:49.890Z,56.79
2022-12-19T02:23:02.711Z,56.82
2022-12-19T02:24:18.376Z,56.81
2022-12-19T02:25:55.783Z,56.77
2022-12-19T02:27:25.680Z,56.90
2022-12-19T02:28:40.338Z,56.89
2022-12-19T02:30:04.842Z,56.59
2022-12-19T02:31:17.467Z,56.90
2022-12-19T02:32:31.508Z,56.87
2022-12-19T02:33:56.381Z,56.90
2022-12-19T02:35:00.239Z,56.74
2022-12-19T02:36:11.793Z,56.55
2022-12-19T02:37:20.927Z,56.63
2022-12-19T02:38:48.296Z,56.84
2022-12-19T02:39:59.036Z,56.81
2022-12-19T02:41:08.080Z,56.83
2022-12-19T02:42:15.303Z,56.73
2022-12-19T02:43:22.743Z,56.78
2022-12-19T02:44:49.065Z,56.99
2022-12-19T02:45:52.923Z,56.60
2022-12-19T02:46:57.229Z,56.60
2022-12-19T02:48:08.648Z,56.86
2022-12-19T02:49:17.837Z,56.63
2022-12-19T02:50:36.299Z,56.77
2022-12-19T02:51:38.808Z,57.02
2022-12-19T02:52:44.978Z,56.89
2022-12-19T02:53:49.856Z,56.96
2022-12-19T02:54:56.283Z,57.05
2022-12-19T02:56:27.321Z,56.99
2022-12-19T02:57:39.910Z,57.09
2022-12-19T02:58:46.215Z,57.02
2022-12-19T03:00:13.019Z,57.17
2022-12-19T03:02:20.321Z,57.14
2022-12-19T03:03:45.102Z,57.15
2022-12-19T03:04:59.726Z,57.34
2022-12-19T03:06:39.590Z,57.22
2022-12-19T03:07:42.285Z,57.21
2022-12-19T03:08:48.656Z,57.21
2022-12-19T03:10:17.269Z,57.08
2022-12-19T03:11:23.401Z,57.24
2022-12-19T03:12:32.336Z,57.13
2022-12-19T03:14:03.800Z,57.15
2022-12-19T03:15:07.518Z,57.31
2022-12-19T03:16:11.329Z,57.21
2022-12-19T03:17:13.690Z,57.30
2022-12-19T03:18:16.026Z,57.21
2022-12-19T03:19:18.389Z,57.27
2022-12-19T03:20:32.445Z,57.31
2022-12-19T03:21:40.456Z,57.27
2022-12-19T03:22:42.967Z,57.28
2022-12-19T03:23:47.332Z,57.34
2022-12-19T03:24:49.691Z,57.36
2022-12-19T03:25:59.068Z,57.37
2022-12-19T03:27:12.874Z,57.45
2022-12-19T03:28:41.507Z,57.48
2022-12-19T03:29:56.012Z,57.51
2022-12-19T03:31:00.994Z,57.39
2022-12-19T03:32:05.738Z,57.53
2022-12-19T03:33:11.639Z,57.47
2022-12-19T03:34:41.951Z,57.64
2022-12-19T03:35:46.969Z,57.67
2022-12-19T03:36:57.281Z,57.59
2022-12-19T03:38:03.131Z,57.35
2022-12-19T03:39:08.578Z,57.46
2022-12-19T03:40:15.894Z,57.46
2022-12-19T03:41:40.900Z,57.38
2022-12-19T03:43:05.188Z,57.54
2022-12-19T03:44:11.593Z,57.66
2022-12-19T03:45:21.118Z,57.54
2022-12-19T03:46:29.269Z,57.61
2022-12-19T03:47:38.285Z,57.51
2022-12-19T03:48:47.537Z,57.46
2022-12-19T03:49:50.731Z,57.45
2022-12-19T03:51:31.739Z,57.41
2022-12-19T03:52:35.691Z,57.58
2022-12-19T03:53:43.797Z,57.59
2022-12-19T03:54:55.003Z,57.57
2022-12-19T03:56:22.818Z,57.63
2022-12-19T03:57:55.596Z,57.65
2022-12-19T03:59:12.957Z,57.66
2022-12-19T04:00:17.680Z,57.62
2022-12-19T04:01:21.771Z,57.71
2022-12-19T04:02:25.201Z,57.50
2022-12-19T04:03:29.633Z,57.75
2022-12-19T04:04:37.152Z,57.67
2022-12-19T04:05:42.079Z,57.61
2022-12-19T04:06:45.802Z,57.56
2022-12-19T04:07:52.439Z,57.66
2022-12-19T04:08:55.709Z,57.72
2022-12-19T04:10:00.470Z,57.68
2022-12-19T04:11:07.557Z,57.76
2022-12-19T04:12:15.550Z,57.65
2022-12-19T04:13:23.893Z,57.72
2022-12-19T04:14:35.748Z,57.74
2022-12-19T04:15:45.031Z,57.52
2022-12-19T04:16:52.486Z,57.66
2022-12-19T04:17:58.018Z,57.58
2022-12-19T04:19:10.518Z,57.75
2022-12-19T04:20:20.981Z,57.66
2022-12-19T04:21:39.229Z,57.81
2022-12-19T04:22:50.985Z,57.65
2022-12-19T04:24:02.264Z,57.65
2022-12-19T04:25:24.014Z,57.67
2022-12-19T04:26:33.332Z,57.69
2022-12-19T04:27:38.892Z,57.83
2022-12-19T04:29:01.190Z,57.71
2022-12-19T04:30:08.613Z,57.79
2022-12-19T04:31:15.797Z,57.81
2022-12-19T04:32:19.386Z,57.87
2022-12-19T04:33:21.636Z,57.71
2022-12-19T04:34:24.038Z,57.69
2022-12-19T04:35:26.469Z,57.88
2022-12-19T04:36:29.137Z,57.87
2022-12-19T04:37:31.915Z,57.84
2022-12-19T04:38:34.889Z,57.95
2022-12-19T04:39:37.222Z,58.09
2022-12-19T04:40:41.649Z,58.06
2022-12-19T04:41:44.130Z,57.84
2022-12-19T04:42:46.477Z,57.85
2022-12-19T04:43:48.969Z,57.87
2022-12-19T04:44:51.845Z,57.98
2022-12-19T04:45:57.898Z,57.87
2022-12-19T04:47:00.301Z,58.03
2022-12-19T04:48:02.799Z,57.88
2022-12-19T04:49:05.121Z,58.00
2022-12-19T04:50:07.583Z,57.94
2022-12-19T04:51:09.844Z,58.01
2022-12-19T04:52:12.142Z,57.85
2022-12-19T04:53:14.523Z,57.99
2022-12-19T04:54:16.896Z,57.96
2022-12-19T04:55:19.267Z,57.81
2022-12-19T04:56:21.634Z,57.85
2022-12-19T04:57:23.983Z,57.81
2022-12-19T04:58:27.868Z,58.00
2022-12-19T04:59:30.236Z,57.90
2022-12-19T05:00:33.582Z,57.92
2022-12-19T05:01:35.927Z,58.06
2022-12-19T05:02:38.943Z,58.07
2022-12-19T05:03:41.726Z,58.13
2022-12-19T05:04:44.105Z,57.96
2022-12-19T05:05:46.445Z,57.92
2022-12-19T05:06:49.000Z,57.93
2022-12-19T05:07:51.798Z,58.10
2022-12-19T05:08:54.254Z,58.01
2022-12-19T05:09:56.631Z,58.05
2022-12-19T05:11:05.426Z,58.07
2022-12-19T05:12:07.795Z,57.93
2022-12-19T05:13:10.127Z,58.10
2022-12-19T05:14:12.702Z,57.90
2022-12-19T05:15:14.979Z,57.88
2022-12-19T05:16:17.649Z,57.89
2022-12-19T05:17:20.001Z,58.02
2022-12-19T05:18:22.218Z,58.02
2022-12-19T05:19:24.681Z,57.91
2022-12-19T05:20:26.924Z,57.95
2022-12-19T05:21:29.148Z,57.84
2022-12-19T05:22:31.397Z,57.90
2022-12-19T05:23:36.067Z,57.89
2022-12-19T05:24:38.323Z,58.02
2022-12-19T05:25:40.661Z,58.07
2022-12-19T05:26:42.930Z,57.92
2022-12-19T05:27:45.252Z,57.80
2022-12-19T05:28:47.777Z,58.05
2022-12-19T05:29:50.048Z,57.84
2022-12-19T05:30:52.756Z,57.77
2022-12-19T05:31:55.286Z,58.00
2022-12-19T05:32:57.533Z,57.87
2022-12-19T05:34:00.024Z,57.98
2022-12-19T05:35:02.737Z,58.00
2022-12-19T05:36:05.711Z,58.01
2022-12-19T05:37:08.790Z,57.97
2022-12-19T05:38:11.016Z,57.84
2022-12-19T05:39:13.279Z,57.99
2022-12-19T05:40:15.551Z,57.82
2022-12-19T05:41:19.845Z,57.86
2022-12-19T05:42:22.173Z,57.88
2022-12-19T05:43:24.479Z,57.92
2022-12-19T05:44:26.892Z,57.89
2022-12-19T05:45:29.395Z,58.03
2022-12-19T05:46:31.658Z,57.95
2022-12-19T05:47:34.131Z,57.94
2022-12-19T05:48:36.864Z,57.94
2022-12-19T05:49:39.101Z,58.02
2022-12-19T05:50:41.655Z,58.10
2022-12-19T05:51:44.832Z,58.03
2022-12-19T05:52:47.459Z,58.02
2022-12-19T05:53:50.049Z,58.10
2022-12-19T05:54:52.372Z,58.08
2022-12-19T05:56:10.102Z,58.13
2022-12-19T05:57:14.463Z,58.20
2022-12-19T05:58:16.828Z,58.18
2022-12-19T05:59:19.029Z,58.28
2022-12-19T06:00:22.586Z,58.22
2022-12-19T06:01:27.226Z,58.27
2022-12-19T06:02:33.730Z,58.41
2022-12-19T06:03:36.653Z,58.21
2022-12-19T06:04:39.004Z,58.40
2022-12-19T06:05:41.416Z,58.37
2022-12-19T06:06:44.502Z,58.51
2022-12-19T06:07:46.783Z,58.49
2022-12-19T06:08:53.585Z,58.37
2022-12-19T06:09:55.947Z,58.43
2022-12-19T06:11:02.892Z,58.55
2022-12-19T06:12:06.334Z,58.46
2022-12-19T06:13:09.338Z,58.47
2022-12-19T06:14:11.630Z,58.66
2022-12-19T06:15:13.903Z,58.66
2022-12-19T06:16:19.132Z,58.61
2022-12-19T06:17:21.533Z,58.63
2022-12-19T06:18:23.966Z,58.62
2022-12-19T06:19:26.532Z,58.64
2022-12-19T06:20:28.835Z,58.68
2022-12-19T06:21:31.143Z,58.65
2022-12-19T06:22:35.077Z,58.77
2022-12-19T06:23:37.726Z,58.84
2022-12-19T06:24:40.099Z,58.79
2022-12-19T06:25:42.383Z,58.79
2022-12-19T06:26:45.291Z,58.75
2022-12-19T06:27:47.569Z,58.90
2022-12-19T06:28:51.956Z,58.92
2022-12-19T06:29:54.576Z,58.94
2022-12-19T06:31:03.451Z,58.83
2022-12-19T06:32:06.000Z,58.81
2022-12-19T06:33:13.769Z,58.76
2022-12-19T06:34:39.403Z,58.79
2022-12-19T06:35:39.188Z,58.76
2022-12-19T06:36:41.513Z,58.63
2022-12-19T06:37:43.746Z,58.67
2022-12-19T06:38:46.627Z,58.86
2022-12-19T06:39:50.986Z,58.80
2022-12-19T06:41:11.862Z,58.75
2022-12-19T06:42:23.658Z,58.73
2022-12-19T06:43:26.433Z,58.84
2022-12-19T06:44:28.650Z,58.62
2022-12-19T06:45:31.445Z,58.75
2022-12-19T06:46:34.390Z,58.91
2022-12-19T06:47:36.613Z,58.86
2022-12-19T06:48:38.824Z,58.88
2022-12-19T06:49:41.023Z,58.83
2022-12-19T06:50:43.250Z,58.74
2022-12-19T06:51:46.440Z,58.87
2022-12-19T06:52:48.873Z,58.85
2022-12-19T06:53:51.719Z,58.81
2022-12-19T06:54:54.067Z,58.82
2022-12-19T06:55:58.950Z,58.70
2022-12-19T06:57:01.461Z,58.64
2022-12-19T06:58:04.501Z,58.67
2022-12-19T06:59:07.788Z,58.84
2022-12-19T07:00:11.079Z,58.83
2022-12-19T07:01:43.976Z,58.87
2022-12-19T07:02:50.709Z,58.92
2022-12-19T07:03:57.259Z,58.91
2022-12-19T07:05:07.523Z,58.95
2022-12-19T07:06:09.913Z,58.86
2022-12-19T07:07:12.341Z,58.60
2022-12-19T07:08:14.823Z,58.64
2022-12-19T07:09:18.168Z,58.85
2022-12-19T07:10:20.551Z,58.80
2022-12-19T07:11:22.928Z,58.72
2022-12-19T07:12:26.613Z,58.75
2022-12-19T07:13:31.499Z,58.82
2022-12-19T07:14:33.954Z,58.86
2022-12-19T07:15:41.092Z,58.68
2022-12-19T07:16:45.725Z,58.74
2022-12-19T07:17:48.310Z,58.75
2022-12-19T07:18:50.624Z,58.68
2022-12-19T07:19:58.077Z,58.73
2022-12-19T07:21:01.741Z,58.66
2022-12-19T07:22:05.308Z,58.77
2022-12-19T07:23:09.370Z,58.74
2022-12-19T07:24:12.555Z,58.79
2022-12-19T07:25:14.919Z,58.83
2022-12-19T07:26:17.633Z,58.80
2022-12-19T07:27:23.330Z,58.88
2022-12-19T07:28:25.710Z,58.81
2022-12-19T07:29:28.287Z,59.00
2022-12-19T07:30:30.662Z,58.81
2022-12-19T07:31:33.109Z,58.83
2022-12-19T07:32:35.652Z,58.83
2022-12-19T07:33:37.838Z,58.82
2022-12-19T07:34:40.147Z,58.88
2022-12-19T07:35:42.428Z,58.80
2022-12-19T07:36:44.642Z,58.82
2022-12-19T07:37:47.553Z,58.74
2022-12-19T07:38:53.822Z,58.78
2022-12-19T07:39:56.070Z,58.89
2022-12-19T07:41:01.512Z,58.73
2022-12-19T07:42:03.947Z,58.87
2022-12-19T07:43:11.181Z,58.69
2022-12-19T07:44:16.466Z,58.83
2022-12-19T07:45:18.796Z,58.66
2022-12-19T07:46:22.136Z,58.78
2022-12-19T07:47:27.629Z,58.66
2022-12-19T07:48:31.504Z,58.63
2022-12-19T07:49:33.719Z,58.65
2022-12-19T07:50:36.029Z,58.64
2022-12-19T07:51:38.264Z,58.63
2022-12-19T07:52:40.621Z,58.61
2022-12-19T07:53:42.856Z,58.67
2022-12-19T07:54:45.113Z,58.69
2022-12-19T07:55:51.074Z,58.80
2022-12-19T07:56:53.368Z,58.74
2022-12-19T07:57:55.866Z,58.66
2022-12-19T07:58:58.153Z,58.80
2022-12-19T08:00:00.450Z,58.87
2022-12-19T08:01:03.305Z,58.66
2022-12-19T08:02:06.527Z,58.70
2022-12-19T08:03:10.365Z,58.62
2022-12-19T08:04:13.797Z,58.71
2022-12-19T08:05:16.192Z,58.71
2022-12-19T08:06:19.845Z,58.53
2022-12-19T08:07:22.087Z,58.62
2022-12-19T08:08:24.957Z,58.51
2022-12-19T08:09:28.334Z,58.53
2022-12-19T08:10:32.197Z,58.68
2022-12-19T08:11:34.614Z,58.68
2022-12-19T08:12:36.888Z,58.60
2022-12-19T08:13:44.792Z,58.70
2022-12-19T08:14:51.596Z,58.52
2022-12-19T08:16:00.782Z,58.73
2022-12-19T08:18:26.139Z,58.54
2022-12-19T08:19:28.364Z,58.38
2022-12-19T08:20:30.593Z,58.51
2022-12-19T08:21:32.833Z,58.40
2022-12-19T08:22:35.382Z,58.50
2022-12-19T08:23:39.426Z,58.33
2022-12-19T08:24:41.670Z,58.28
2022-12-19T08:25:43.963Z,58.29
2022-12-19T08:26:47.842Z,58.12
2022-12-19T08:27:50.199Z,58.13
2022-12-19T08:28:57.245Z,58.20
2022-12-19T08:29:59.428Z,58.28
2022-12-19T08:31:10.274Z,58.14
2022-12-19T08:32:18.635Z,58.23
2022-12-19T08:33:23.057Z,58.25
2022-12-19T08:34:25.278Z,58.24
2022-12-19T08:35:27.654Z,58.23
2022-12-19T08:36:29.892Z,58.20
2022-12-19T08:37:32.116Z,58.29
2022-12-19T08:38:35.040Z,58.15
2022-12-19T08:39:37.377Z,58.10
2022-12-19T08:40:42.873Z,58.06
2022-12-19T08:41:49.369Z,58.06
2022-12-19T08:42:51.586Z,58.17
2022-12-19T08:43:54.803Z,57.98
2022-12-19T08:44:57.069Z,57.88
2022-12-19T08:45:59.809Z,57.86
2022-12-19T08:47:03.183Z,57.90
2022-12-19T08:48:05.854Z,57.89
2022-12-19T08:49:08.072Z,57.78
2022-12-19T08:50:11.235Z,58.12
2022-12-19T08:51:14.583Z,58.01
2022-12-19T08:52:17.727Z,58.07
2022-12-19T08:53:26.265Z,58.02
2022-12-19T08:54:28.990Z,57.74
2022-12-19T08:55:31.233Z,57.91
2022-12-19T08:56:33.480Z,57.91
2022-12-19T08:57:36.125Z,57.81
2022-12-19T08:58:38.422Z,57.96
2022-12-19T08:59:40.711Z,57.85
2022-12-19T09:00:46.535Z,57.92
2022-12-19T09:01:56.458Z,57.75
2022-12-19T09:02:59.021Z,57.82
2022-12-19T09:05:08.495Z,57.84
2022-12-19T09:06:05.215Z,57.80
2022-12-19T09:06:45.968Z,57.87
2022-12-19T09:07:48.226Z,57.57
2022-12-19T09:08:50.468Z,57.67
2022-12-19T09:09:52.759Z,57.75
2022-12-19T09:10:59.926Z,57.66
2022-12-19T09:12:02.201Z,57.75
2022-12-19T09:13:13.809Z,57.71
2022-12-19T09:14:21.429Z,57.87
2022-12-19T09:15:24.401Z,57.50
2022-12-19T09:16:29.542Z,57.64
2022-12-19T09:17:31.846Z,57.53
2022-12-19T09:18:35.016Z,57.59
2022-12-19T09:19:37.340Z,57.67
2022-12-19T09:20:40.376Z,57.67
2022-12-19T09:21:42.995Z,57.50
2022-12-19T09:22:45.309Z,57.55
2022-12-19T09:23:49.793Z,57.55
2022-12-19T09:24:54.272Z,57.34
2022-12-19T09:26:08.007Z,57.54
2022-12-19T09:27:10.203Z,57.58
2022-12-19T09:28:28.338Z,57.62
2022-12-19T09:29:35.096Z,57.53
2022-12-19T09:30:37.894Z,57.72
2022-12-19T09:31:40.397Z,57.58
2022-12-19T09:32:42.645Z,57.45
2022-12-19T09:33:45.076Z,57.57
2022-12-19T09:34:47.357Z,57.45
2022-12-19T09:35:51.359Z,57.49
2022-12-19T09:36:56.819Z,57.35
2022-12-19T09:38:00.555Z,57.41
2022-12-19T09:39:03.085Z,57.57
2022-12-19T09:40:05.933Z,57.43
2022-12-19T09:41:14.908Z,57.54
2022-12-19T09:42:30.638Z,57.63
2022-12-19T09:43:44.991Z,57.66
2022-12-19T09:45:15.442Z,57.55
2022-12-19T09:46:52.606Z,57.45
2022-12-19T09:47:59.151Z,57.47
2022-12-19T09:49:02.089Z,57.71
2022-12-19T09:50:18.548Z,57.47
2022-12-19T09:51:30.892Z,57.66
2022-12-19T09:52:37.591Z,57.48
2022-12-19T09:54:15.362Z,57.64
2022-12-19T09:55:28.482Z,57.67
2022-12-19T09:56:46.310Z,57.76
2022-12-19T09:57:59.437Z,57.56
2022-12-19T09:59:12.835Z,57.62
2022-12-19T10:00:19.584Z,57.68
2022-12-19T10:01:33.024Z,57.61
2022-12-19T10:02:49.559Z,57.63
2022-12-19T10:04:01.464Z,57.64
2022-12-19T10:05:25.171Z,57.66
2022-12-19T10:07:12.990Z,57.58
2022-12-19T10:08:10.411Z,57.56
2022-12-19T10:10:04.297Z,57.45
2022-12-19T10:12:38.105Z,57.57
2022-12-19T10:12:51.118Z,57.50
2022-12-19T10:14:22.357Z,57.51
2022-12-19T10:15:45.199Z,57.67
2022-12-19T10:17:25.365Z,57.70
2022-12-19T10:18:51.013Z,57.64
2022-12-19T10:19:58.066Z,57.73
2022-12-19T10:21:37.166Z,57.47
2022-12-19T10:23:42.989Z,57.85
2022-12-19T10:25:10.231Z,57.94
2022-12-19T10:26:50.164Z,57.83
2022-12-19T10:28:07.414Z,57.93
2022-12-19T10:29:35.945Z,57.89
2022-12-19T10:30:48.159Z,57.99
2022-12-19T10:32:29.060Z,58.03
2022-12-19T10:34:00.439Z,58.01
2022-12-19T10:35:15.054Z,57.75
2022-12-19T10:36:17.559Z,57.88
2022-12-19T10:37:35.138Z,57.76
2022-12-19T10:39:03.861Z,57.69
2022-12-19T10:40:27.367Z,57.69
2022-12-19T10:41:32.701Z,57.79
2022-12-19T10:42:55.511Z,57.79
2022-12-19T10:44:07.515Z,57.42
2022-12-19T10:45:15.142Z,57.62
2022-12-19T10:46:23.859Z,57.43
2022-12-19T10:47:26.142Z,57.51
2022-12-19T10:48:31.012Z,57.40
2022-12-19T10:49:34.132Z,57.26
2022-12-19T10:50:36.513Z,57.31
2022-12-19T10:51:39.274Z,57.05
2022-12-19T10:52:52.652Z,57.23
2022-12-19T10:54:01.515Z,57.05
2022-12-19T10:55:30.082Z,57.17
2022-12-19T10:56:37.487Z,56.95
2022-12-19T10:57:40.432Z,56.88
2022-12-19T10:58:45.631Z,57.00
2022-12-19T11:00:01.927Z,56.75
2022-12-19T11:01:09.941Z,56.81
2022-12-19T11:02:33.182Z,56.81
2022-12-19T11:03:36.165Z,56.82
2022-12-19T11:04:39.404Z,56.56
2022-12-19T11:05:50.717Z,56.50
2022-12-19T11:07:03.348Z,56.31
2022-12-19T11:08:08.309Z,56.33
2022-12-19T11:09:37.917Z,56.49
2022-12-19T11:12:13.021Z,56.20
2022-12-19T11:13:22.230Z,56.28
2022-12-19T11:17:49.215Z,56.24
2022-12-19T11:19:08.208Z,56.18
2022-12-19T11:23:25.277Z,56.31
2022-12-19T11:25:57.778Z,56.10
2022-12-19T11:29:17.974Z,56.20
2022-12-19T11:29:33.018Z,55.93
2022-12-19T11:29:35.301Z,55.78
2022-12-19T11:30:35.708Z,55.49
2022-12-19T11:30:40.811Z,55.78
2022-12-19T11:30:47.443Z,55.84
2022-12-19T11:30:48.668Z,55.92
2022-12-19T11:32:39.078Z,55.70
2022-12-19T11:33:21.595Z,55.62
2022-12-19T11:34:27.328Z,55.58
2022-12-19T11:35:36.538Z,55.80
2022-12-19T11:37:03.116Z,55.70
2022-12-19T11:38:08.526Z,55.94
2022-12-19T11:39:24.863Z,55.82
2022-12-19T11:40:49.328Z,56.08
2022-12-19T11:42:02.070Z,56.08
2022-12-19T11:45:03.065Z,55.98
2022-12-19T11:46:32.883Z,55.94
2022-12-19T11:47:47.853Z,56.00
2022-12-19T11:48:55.452Z,55.92
2022-12-19T11:50:13.547Z,55.94
2022-12-19T11:51:30.496Z,55.87
2022-12-19T11:53:18.350Z,56.10
2022-12-19T11:54:46.921Z,56.21
2022-12-19T11:55:56.223Z,56.26
2022-12-19T11:56:59.364Z,56.21
2022-12-19T11:58:01.584Z,56.22
2022-12-19T11:59:13.620Z,56.32
2022-12-19T12:00:24.593Z,56.38
2022-12-19T12:01:54.712Z,56.54
2022-12-19T12:03:12.746Z,56.67
2022-12-19T12:04:46.688Z,56.44
2022-12-19T12:05:51.662Z,56.61
2022-12-19T12:06:57.791Z,56.63
2022-12-19T12:09:19.550Z,56.61
2022-12-19T12:13:45.653Z,56.60
2022-12-19T12:18:53.037Z,56.58
2022-12-19T12:19:11.996Z,56.79
2022-12-19T12:25:59.634Z,56.84
2022-12-19T12:31:08.553Z,56.81
2022-12-19T12:31:22.987Z,56.80
2022-12-19T12:31:26.377Z,56.85
2022-12-19T12:31:26.997Z,56.73
2022-12-19T12:31:43.764Z,56.83
2022-12-19T12:31:44.603Z,56.79
2022-12-19T12:31:57.248Z,56.96
2022-12-19T12:32:02.051Z,56.94
2022-12-19T12:35:22.308Z,56.93
2022-12-19T12:35:35.105Z,57.02
2022-12-19T12:36:00.032Z,57.06
2022-12-19T12:37:58.847Z,57.13
2022-12-19T12:39:16.165Z,57.06
2022-12-19T12:40:52.894Z,57.39
2022-12-19T12:42:09.509Z,57.44
2022-12-19T12:43:14.536Z,57.51
2022-12-19T12:44:17.496Z,57.50
2022-12-19T12:45:36.247Z,57.88
2022-12-19T12:46:44.861Z,57.75
2022-12-19T12:47:53.264Z,57.74
2022-12-19T12:49:06.010Z,57.93
2022-12-19T12:50:14.840Z,57.86
2022-12-19T12:51:18.659Z,57.87
2022-12-19T12:52:29.972Z,57.87
2022-12-19T12:53:37.224Z,58.15
2022-12-19T12:54:42.916Z,58.02
2022-12-19T12:55:46.412Z,58.18
2022-12-19T12:56:48.836Z,58.25
2022-12-19T12:57:52.406Z,58.34
2022-12-19T12:58:55.489Z,58.37
2022-12-19T13:00:30.016Z,58.40
2022-12-19T13:01:36.846Z,58.39
2022-12-19T13:02:40.129Z,58.45
2022-12-19T13:03:43.619Z,58.74
2022-12-19T13:04:59.264Z,58.70
2022-12-19T13:06:07.481Z,58.65
2022-12-19T13:07:20.732Z,58.78
2022-12-19T13:08:42.720Z,58.77
2022-12-19T13:09:50.754Z,58.76
2022-12-19T13:10:58.340Z,58.93
2022-12-19T13:12:22.909Z,58.90
2022-12-19T13:13:50.696Z,59.12
2022-12-19T13:14:52.989Z,59.17
2022-12-19T13:15:55.289Z,59.04
2022-12-19T13:16:57.573Z,59.22
2022-12-19T13:18:31.327Z,59.40
2022-12-19T13:19:36.454Z,59.38
2022-12-19T13:21:03.076Z,59.60
2022-12-19T13:22:05.301Z,59.80
2022-12-19T13:23:24.370Z,59.84
2022-12-19T13:24:38.983Z,60.00
2022-12-19T13:25:41.166Z,59.94
2022-12-19T13:26:46.870Z,60.04
2022-12-19T13:27:50.626Z,60.06
2022-12-19T13:28:52.929Z,60.04
2022-12-19T13:30:01.396Z,60.23
2022-12-19T13:31:19.505Z,60.35
2022-12-19T13:32:24.083Z,60.38
2022-12-19T13:33:46.221Z,60.30
2022-12-19T13:35:56.498Z,60.42
2022-12-19T13:39:50.680Z,60.72
2022-12-19T13:40:00.501Z,60.60
2022-12-19T13:40:12.306Z,60.80
2022-12-19T13:41:49.641Z,60.79
2022-12-19T13:43:18.293Z,61.09
2022-12-19T13:44:24.578Z,60.89
2022-12-19T13:45:55.028Z,61.28
2022-12-19T13:46:57.408Z,61.27
2022-12-19T13:48:03.363Z,61.35
2022-12-19T13:49:15.282Z,61.43
2022-12-19T13:50:29.967Z,61.30
2022-12-19T13:51:56.993Z,61.55
2022-12-19T13:53:00.041Z,61.34
2022-12-19T13:54:02.340Z,61.96
2022-12-19T13:55:12.648Z,61.71
2022-12-19T13:56:18.059Z,62.05
2022-12-19T13:57:26.312Z,62.40
2022-12-19T13:58:32.393Z,62.17
2022-12-19T13:59:38.188Z,62.50
2022-12-19T14:00:42.945Z,62.26
2022-12-19T14:01:45.507Z,62.37
2022-12-19T14:02:54.645Z,62.47
2022-12-19T14:04:07.663Z,62.90
2022-12-19T14:05:34.116Z,63.23
2022-12-19T14:06:50.521Z,63.41
2022-12-19T14:07:53.548Z,63.34
2022-12-19T14:11:27.886Z,63.60
2022-12-19T14:11:32.247Z,63.68
2022-12-19T14:12:19.878Z,63.75
2022-12-19T14:14:00.276Z,63.78
2022-12-19T14:15:22.392Z,63.88
2022-12-19T14:16:43.795Z,63.91
2022-12-19T14:17:50.854Z,63.97
2022-12-19T14:18:56.301Z,64.12
2022-12-19T14:20:15.489Z,64.11
2022-12-19T14:22:07.141Z,64.00
2022-12-19T14:23:01.968Z,64.00
2022-12-19T14:24:25.125Z,64.14
2022-12-19T14:28:17.937Z,64.11
2022-12-19T14:28:22.204Z,64.01
2022-12-19T14:28:54.436Z,64.15
2022-12-19T14:30:27.635Z,64.26
2022-12-19T14:31:23.395Z,64.32
2022-12-19T14:33:45.142Z,64.13
2022-12-19T14:34:18.964Z,64.38
2022-12-19T14:36:10.557Z,64.54
2022-12-19T14:36:48.510Z,64.53
2022-12-19T14:39:22.431Z,64.57
2022-12-19T14:39:32.639Z,64.74
2022-12-19T14:41:00.189Z,64.74
2022-12-19T14:43:06.295Z,64.67
2022-12-19T14:54:02.600Z,64.61
2022-12-19T14:54:05.912Z,65.17
2022-12-19T14:54:07.008Z,65.06
2022-12-19T14:54:11.033Z,65.11
2022-12-19T14:54:40.346Z,65.08
2022-12-19T14:54:40.650Z,65.10
2022-12-19T14:54:50.609Z,65.59
2022-12-19T14:56:00.519Z,65.50
2022-12-19T14:58:51.337Z,65.75
2022-12-19T14:58:57.161Z,65.73
2022-12-19T14:59:59.694Z,65.79
2022-12-19T15:01:09.783Z,65.84
2022-12-19T15:02:28.004Z,65.74
2022-12-19T15:04:47.303Z,66.20
2022-12-19T15:05:14.860Z,66.14
2022-12-19T15:07:06.768Z,66.63
2022-12-19T15:07:45.834Z,66.55
2022-12-19T15:09:02.441Z,66.55
2022-12-19T15:11:03.852Z,66.65
2022-12-19T15:14:50.605Z,66.68
2022-12-19T15:14:53.739Z,66.73
2022-12-19T15:15:59.502Z,66.65
2022-12-19T15:17:06.767Z,66.40
2022-12-19T15:18:33.954Z,66.46